createdAt,value
2018-01-22T00:02:14.577Z,2.66
2018-01-22T00:04:42.895Z,2.45
2018-01-22T00:07:11.203Z,2.48
2018-01-22T00:09:39.554Z,2.33
2018-01-22T00:12:07.857Z,2.18
2018-01-22T00:14:36.926Z,2.47
2018-01-22T00:17:05.472Z,2.46
2018-01-22T00:19:33.799Z,2.46
2018-01-22T00:22:02.092Z,2.37
2018-01-22T00:24:30.454Z,2.41
2018-01-22T00:26:58.791Z,2.40
2018-01-22T00:29:27.099Z,2.00
2018-01-22T00:31:55.447Z,2.23
2018-01-22T00:34:23.742Z,2.49
2018-01-22T00:36:52.080Z,2.27
2018-01-22T00:39:20.455Z,2.13
2018-01-22T00:41:48.758Z,2.14
2018-01-22T00:44:17.060Z,2.49
2018-01-22T00:46:45.427Z,2.24
2018-01-22T00:49:13.784Z,2.13
2018-01-22T00:51:42.072Z,2.13
2018-01-22T00:54:10.409Z,2.05
2018-01-22T00:56:39.501Z,2.15
2018-01-22T00:59:08.612Z,2.39
2018-01-22T01:01:37.826Z,2.19
2018-01-22T01:04:06.148Z,2.20
2018-01-22T01:06:34.452Z,2.09
2018-01-22T01:09:02.827Z,2.40
2018-01-22T01:11:31.168Z,2.30
2018-01-22T01:14:00.236Z,2.45
2018-01-22T01:16:28.550Z,2.20
2018-01-22T01:18:56.871Z,2.04
2018-01-22T01:21:25.950Z,1.95
2018-01-22T01:23:54.554Z,2.01
2018-01-22T01:26:22.856Z,2.14
2018-01-22T01:28:51.146Z,2.35
2018-01-22T01:31:19.500Z,2.26
2018-01-22T01:33:47.797Z,2.28
2018-01-22T01:36:16.140Z,2.13
2018-01-22T01:38:45.248Z,2.26
2018-01-22T01:41:13.560Z,2.66
2018-01-22T01:43:41.876Z,2.33
2018-01-22T01:46:10.872Z,2.42
2018-01-22T01:48:39.201Z,2.39
2018-01-22T01:51:07.538Z,2.42
2018-01-22T01:53:36.634Z,2.42
2018-01-22T01:56:05.717Z,2.43
2018-01-22T01:58:34.036Z,2.41
2018-01-22T02:01:02.352Z,2.41
2018-01-22T02:03:30.679Z,2.34
2018-01-22T02:05:58.989Z,2.51
2018-01-22T02:08:27.595Z,2.40
2018-01-22T02:10:55.884Z,2.22
2018-01-22T02:13:24.204Z,2.47
2018-01-22T02:15:52.548Z,2.36
2018-01-22T02:18:20.856Z,2.70
2018-01-22T02:20:49.923Z,2.51
2018-01-22T02:23:18.251Z,2.61
2018-01-22T02:25:46.568Z,2.49
2018-01-22T02:28:14.884Z,2.34
2018-01-22T02:30:44.101Z,2.43
2018-01-22T02:33:12.438Z,2.65
2018-01-22T02:35:40.812Z,2.38
2018-01-22T02:38:09.141Z,2.40
2018-01-22T02:40:37.443Z,2.49
2018-01-22T02:43:05.764Z,2.52
2018-01-22T02:45:34.101Z,2.54
2018-01-22T02:48:02.427Z,2.27
2018-01-22T02:50:31.481Z,2.30
2018-01-22T02:53:00.316Z,2.42
2018-01-22T02:55:29.372Z,2.63
2018-01-22T02:57:57.705Z,2.57
2018-01-22T03:00:26.104Z,2.55
2018-01-22T03:02:55.188Z,2.62
2018-01-22T03:05:23.519Z,2.85
2018-01-22T03:07:51.907Z,2.97
2018-01-22T03:10:20.215Z,3.11
2018-01-22T03:12:48.875Z,2.83
2018-01-22T03:15:17.482Z,2.69
2018-01-22T03:17:45.780Z,2.84
2018-01-22T03:20:14.104Z,2.73
2018-01-22T03:22:42.448Z,2.72
2018-01-22T03:25:11.500Z,2.43
2018-01-22T03:27:39.782Z,2.48
2018-01-22T03:30:08.140Z,2.68
2018-01-22T03:32:36.456Z,2.49
2018-01-22T03:35:04.751Z,2.43
2018-01-22T03:37:33.417Z,2.40
2018-01-22T03:40:01.743Z,2.42
2018-01-22T03:42:30.083Z,2.44
2018-01-22T03:44:58.408Z,2.66
2018-01-22T03:47:26.684Z,2.63
2018-01-22T03:49:55.014Z,2.56
2018-01-22T03:52:23.318Z,2.65
2018-01-22T03:54:52.373Z,2.47
2018-01-22T03:57:20.665Z,2.42
2018-01-22T03:59:49.140Z,2.68
2018-01-22T04:02:17.447Z,2.79
2018-01-22T04:04:45.767Z,2.87
2018-01-22T04:07:17.890Z,2.85
2018-01-22T04:09:46.217Z,2.73
2018-01-22T04:12:14.549Z,2.83
2018-01-22T04:14:43.772Z,2.59
2018-01-22T04:17:12.091Z,2.53
2018-01-22T04:19:40.537Z,2.65
2018-01-22T04:22:09.400Z,2.74
2018-01-22T04:24:38.491Z,3.33
2018-01-22T04:27:07.558Z,3.06
2018-01-22T04:29:35.894Z,2.81
2018-01-22T04:32:04.279Z,2.50
2018-01-22T04:34:32.578Z,2.60
2018-01-22T04:37:00.963Z,2.69
2018-01-22T04:39:29.256Z,2.68
2018-01-22T04:41:57.552Z,2.79
2018-01-22T04:44:26.976Z,2.79
2018-01-22T04:46:55.330Z,2.84
2018-01-22T04:49:24.423Z,2.90
2018-01-22T04:51:53.518Z,2.86
2018-01-22T04:54:22.599Z,2.70
2018-01-22T04:56:51.691Z,2.65
2018-01-22T04:59:20.009Z,2.51
2018-01-22T05:01:49.068Z,2.69
2018-01-22T05:04:17.380Z,2.88
2018-01-22T05:06:46.953Z,2.93
2018-01-22T05:09:15.255Z,2.93
2018-01-22T05:11:44.320Z,2.74
2018-01-22T05:14:12.967Z,2.86
2018-01-22T05:16:41.254Z,2.96
2018-01-22T05:19:09.595Z,2.92
2018-01-22T05:21:37.920Z,3.02
2018-01-22T05:24:06.235Z,3.12
2018-01-22T05:26:34.548Z,3.11
2018-01-22T05:29:03.281Z,3.28
2018-01-22T05:31:31.628Z,3.22
2018-01-22T05:33:59.916Z,2.99
2018-01-22T05:36:28.255Z,3.10
2018-01-22T05:38:57.336Z,3.14
2018-01-22T05:41:25.623Z,2.99
2018-01-22T05:43:54.684Z,2.96
2018-01-22T05:46:23.760Z,3.05
2018-01-22T05:48:52.075Z,2.92
2018-01-22T05:51:20.523Z,3.00
2018-01-22T05:53:48.831Z,2.77
2018-01-22T05:56:17.180Z,2.92
2018-01-22T05:58:45.495Z,2.87
2018-01-22T06:01:13.787Z,3.00
2018-01-22T06:03:42.862Z,2.91
2018-01-22T06:06:11.200Z,2.82
2018-01-22T06:08:39.502Z,2.79
2018-01-22T06:11:08.582Z,2.76
2018-01-22T06:13:37.186Z,2.73
2018-01-22T06:16:05.485Z,2.83
2018-01-22T06:18:33.851Z,2.94
2018-01-22T06:21:02.156Z,2.97
2018-01-22T06:23:31.210Z,2.97
2018-01-22T06:25:59.525Z,3.18
2018-01-22T06:28:28.609Z,2.97
2018-01-22T06:30:56.919Z,3.10
2018-01-22T06:33:25.245Z,2.99
2018-01-22T06:35:53.664Z,3.33
2018-01-22T06:38:22.011Z,3.07
2018-01-22T06:40:50.327Z,3.09
2018-01-22T06:43:18.662Z,3.17
2018-01-22T06:45:46.978Z,3.37
2018-01-22T06:48:16.059Z,3.00
2018-01-22T06:50:45.167Z,2.87
2018-01-22T06:53:14.248Z,2.96
2018-01-22T06:55:43.320Z,3.11
2018-01-22T06:58:11.890Z,3.05
2018-01-22T07:00:40.200Z,3.06
2018-01-22T07:03:08.567Z,2.90
2018-01-22T07:05:36.909Z,2.95
2018-01-22T07:08:05.236Z,2.89
2018-01-22T07:10:33.527Z,2.94
2018-01-22T07:13:02.635Z,3.05
2018-01-22T07:15:31.751Z,3.06
2018-01-22T07:18:00.073Z,2.94
2018-01-22T07:20:28.887Z,3.16
2018-01-22T07:22:57.241Z,3.11
2018-01-22T07:25:25.594Z,3.32
2018-01-22T07:27:53.941Z,3.28
2018-01-22T07:30:22.268Z,3.43
2018-01-22T07:32:50.595Z,3.30
2018-01-22T07:35:18.943Z,3.35
2018-01-22T07:37:47.257Z,3.24
2018-01-22T07:40:15.592Z,3.33
2018-01-22T07:42:44.136Z,3.17
2018-01-22T07:45:12.549Z,3.18
2018-01-22T07:47:40.883Z,3.26
2018-01-22T07:50:09.248Z,3.18
2018-01-22T07:52:38.344Z,3.23
2018-01-22T07:55:06.668Z,3.01
2018-01-22T07:57:34.976Z,3.22
2018-01-22T08:00:03.304Z,3.18
2018-01-22T08:02:31.618Z,3.06
2018-01-22T08:05:00.365Z,3.10
2018-01-22T08:07:28.672Z,3.04
2018-01-22T08:09:56.973Z,3.17
2018-01-22T08:12:25.341Z,2.94
2018-01-22T08:14:53.656Z,2.79
2018-01-22T08:17:21.994Z,2.85
2018-01-22T08:19:51.127Z,3.10
2018-01-22T08:22:20.172Z,3.03
2018-01-22T08:24:48.503Z,3.01
2018-01-22T08:27:17.063Z,3.22
2018-01-22T08:29:45.463Z,3.19
2018-01-22T08:32:13.825Z,3.00
2018-01-22T08:34:42.156Z,3.05
2018-01-22T08:37:11.251Z,3.15
2018-01-22T08:39:39.578Z,3.18
2018-01-22T08:42:07.916Z,3.18
2018-01-22T08:44:36.220Z,2.90
2018-01-22T08:47:04.571Z,3.06
2018-01-22T08:49:33.604Z,3.15
2018-01-22T08:52:01.944Z,3.18
2018-01-22T08:54:30.247Z,3.47
2018-01-22T08:56:58.586Z,3.34
2018-01-22T08:59:26.913Z,3.49
2018-01-22T09:01:55.254Z,3.58
2018-01-22T09:04:23.624Z,3.57
2018-01-22T09:06:51.959Z,3.21
2018-01-22T09:09:21.075Z,3.08
2018-01-22T09:11:50.514Z,3.23
2018-01-22T09:14:18.818Z,3.36
2018-01-22T09:16:47.162Z,3.29
2018-01-22T09:19:15.518Z,3.22
2018-01-22T09:21:43.835Z,3.36
2018-01-22T09:24:12.157Z,3.40
2018-01-22T09:26:41.259Z,3.40
2018-01-22T09:29:09.580Z,3.70
2018-01-22T09:31:37.894Z,3.69
2018-01-22T09:34:06.925Z,3.37
2018-01-22T09:36:35.220Z,3.43
2018-01-22T09:39:03.543Z,3.75
2018-01-22T09:41:32.173Z,3.51
2018-01-22T09:44:00.489Z,3.52
2018-01-22T09:46:28.840Z,3.58
2018-01-22T09:48:57.184Z,3.71
2018-01-22T09:51:25.480Z,3.90
2018-01-22T09:53:53.777Z,3.77
2018-01-22T09:56:22.638Z,3.60
2018-01-22T09:58:50.993Z,3.89
2018-01-22T10:01:19.298Z,3.84
2018-01-22T10:03:47.656Z,3.65
2018-01-22T10:06:15.980Z,3.60
2018-01-22T10:08:44.276Z,3.27
2018-01-22T10:11:12.639Z,3.21
2018-01-22T10:13:40.959Z,3.63
2018-01-22T10:16:09.303Z,3.70
2018-01-22T10:18:39.027Z,3.87
2018-01-22T10:21:07.362Z,4.09
2018-01-22T10:23:35.674Z,3.64
2018-01-22T10:26:04.018Z,3.55
2018-01-22T10:28:32.347Z,3.57
2018-01-22T10:31:00.663Z,3.60
2018-01-22T10:33:29.783Z,3.50
2018-01-22T10:35:58.110Z,3.68
2018-01-22T10:38:26.423Z,3.63
2018-01-22T10:40:54.817Z,3.69
2018-01-22T10:43:23.140Z,3.57
2018-01-22T10:45:51.500Z,3.51
2018-01-22T10:48:19.961Z,3.69
2018-01-22T10:50:48.296Z,3.85
2018-01-22T10:53:17.397Z,3.67
2018-01-22T10:55:46.492Z,3.51
2018-01-22T10:58:15.580Z,3.48
2018-01-22T11:00:43.896Z,3.45
2018-01-22T11:03:12.567Z,3.41
2018-01-22T11:05:40.871Z,3.59
2018-01-22T11:08:09.187Z,3.53
2018-01-22T11:10:37.564Z,3.47
2018-01-22T11:13:05.896Z,3.64
2018-01-22T11:15:39.799Z,3.77
2018-01-22T11:18:08.147Z,3.91
2018-01-22T11:20:37.228Z,3.71
2018-01-22T11:23:05.758Z,3.31
2018-01-22T11:25:34.079Z,3.35
2018-01-22T11:28:02.426Z,3.77
2018-01-22T11:30:30.779Z,3.62
2018-01-22T11:32:59.874Z,3.67
2018-01-22T11:35:28.212Z,3.86
2018-01-22T11:37:56.567Z,3.78
2018-01-22T11:40:24.916Z,3.66
2018-01-22T11:42:53.984Z,3.70
2018-01-22T11:45:22.712Z,3.82
2018-01-22T11:47:51.009Z,4.00
2018-01-22T11:50:19.336Z,4.04
2018-01-22T11:52:48.430Z,4.04
2018-01-22T11:55:16.729Z,3.73
2018-01-22T11:57:45.067Z,3.85
2018-01-22T12:00:13.424Z,4.09
2018-01-22T12:02:41.738Z,4.04
2018-01-22T12:05:10.053Z,3.86
2018-01-22T12:07:38.741Z,3.69
2018-01-22T12:10:07.053Z,3.72
2018-01-22T12:12:35.386Z,4.09
2018-01-22T12:15:03.726Z,3.98
2018-01-22T12:17:32.025Z,3.83
2018-01-22T12:20:00.333Z,3.86
2018-01-22T12:22:28.667Z,3.88
2018-01-22T12:24:57.002Z,3.60
2018-01-22T12:27:25.297Z,3.90
2018-01-22T12:29:54.052Z,3.91
2018-01-22T12:32:22.375Z,3.99
2018-01-22T12:34:50.689Z,4.14
2018-01-22T12:37:19.788Z,4.28
2018-01-22T12:39:48.873Z,4.24
2018-01-22T12:42:17.976Z,4.09
2018-01-22T12:44:47.066Z,3.70
2018-01-22T12:47:16.131Z,3.75
2018-01-22T12:49:44.464Z,3.88
2018-01-22T12:52:13.101Z,3.77
2018-01-22T12:54:41.439Z,3.70
2018-01-22T12:57:09.728Z,4.01
2018-01-22T12:59:38.091Z,3.89
2018-01-22T13:02:06.409Z,4.15
2018-01-22T13:04:34.800Z,3.99
2018-01-22T13:07:03.917Z,3.84
2018-01-22T13:09:33.059Z,3.84
2018-01-22T13:12:01.399Z,4.03
2018-01-22T13:14:30.622Z,3.73
2018-01-22T13:16:58.977Z,3.96
2018-01-22T13:19:28.078Z,4.17
2018-01-22T13:21:57.236Z,3.91
2018-01-22T13:24:25.542Z,3.92
2018-01-22T13:26:53.852Z,3.96
2018-01-22T13:29:22.204Z,3.88
2018-01-22T13:31:51.260Z,4.14
2018-01-22T13:34:19.568Z,4.42
2018-01-22T13:36:48.953Z,4.50
2018-01-22T13:39:17.276Z,4.41
2018-01-22T13:41:45.584Z,4.34
2018-01-22T13:44:13.924Z,4.14
2018-01-22T13:46:42.245Z,4.23
2018-01-22T13:49:10.565Z,4.14
2018-01-22T13:51:38.899Z,4.08
2018-01-22T13:54:07.229Z,4.19
2018-01-22T13:56:35.548Z,4.10
2018-01-22T13:59:04.164Z,4.22
2018-01-22T14:01:32.459Z,4.15
2018-01-22T14:04:01.576Z,4.14
2018-01-22T14:06:30.651Z,4.01
2018-01-22T14:08:59.703Z,3.97
2018-01-22T14:11:28.030Z,4.19
2018-01-22T14:13:56.371Z,4.51
2018-01-22T14:16:24.679Z,4.78
2018-01-22T14:18:52.972Z,4.66
2018-01-22T14:21:22.108Z,4.06
2018-01-22T14:23:50.417Z,4.23
2018-01-22T14:26:18.721Z,4.17
2018-01-22T14:28:47.836Z,4.21
2018-01-22T14:31:16.173Z,4.30
2018-01-22T14:33:44.492Z,4.43
2018-01-22T14:36:12.988Z,4.35
2018-01-22T14:38:41.301Z,4.31
2018-01-22T14:41:09.633Z,4.35
2018-01-22T14:43:38.177Z,4.19
2018-01-22T14:46:07.308Z,4.27
2018-01-22T14:48:35.631Z,4.51
2018-01-22T14:51:03.995Z,4.59
2018-01-22T14:53:32.425Z,4.51
2018-01-22T14:56:01.498Z,4.65
2018-01-22T14:58:29.852Z,4.71
2018-01-22T15:00:58.158Z,4.79
2018-01-22T15:03:26.525Z,4.83
2018-01-22T15:05:55.348Z,4.78
2018-01-22T15:08:23.669Z,4.62
2018-01-22T15:10:51.984Z,4.41
2018-01-22T15:13:20.324Z,4.59
2018-01-22T15:15:48.692Z,4.66
2018-01-22T15:18:16.988Z,4.86
2018-01-22T15:20:46.119Z,4.94
2018-01-22T15:23:15.216Z,4.96
2018-01-22T15:25:44.313Z,5.05
2018-01-22T15:28:13.525Z,4.84
2018-01-22T15:30:41.841Z,4.80
2018-01-22T15:33:10.219Z,4.88
2018-01-22T15:35:38.574Z,4.69
2018-01-22T15:38:06.931Z,4.55
2018-01-22T15:40:36.024Z,4.78
2018-01-22T15:43:05.124Z,4.86
2018-01-22T15:45:34.362Z,4.82
2018-01-22T15:48:02.677Z,4.82
2018-01-22T15:50:31.331Z,4.83
2018-01-22T15:52:59.707Z,4.84
2018-01-22T15:55:28.052Z,4.86
2018-01-22T15:57:56.376Z,4.98
2018-01-22T16:00:24.675Z,4.88
2018-01-22T16:02:52.998Z,4.95
2018-01-22T16:05:21.318Z,4.67
2018-01-22T16:07:49.613Z,4.93
2018-01-22T16:10:17.922Z,4.99
2018-01-22T16:12:47.224Z,5.04
2018-01-22T16:15:15.548Z,4.95
2018-01-22T16:17:43.861Z,5.07
2018-01-22T16:20:12.958Z,4.82
2018-01-22T16:22:42.042Z,5.07
2018-01-22T16:25:10.339Z,5.27
2018-01-22T16:27:39.461Z,5.49
2018-01-22T16:30:07.812Z,5.39
2018-01-22T16:32:36.142Z,5.43
2018-01-22T16:35:04.827Z,5.38
2018-01-22T16:37:33.142Z,4.96
2018-01-22T16:40:01.459Z,4.79
2018-01-22T16:42:29.813Z,4.89
2018-01-22T16:44:58.108Z,4.85
2018-01-22T16:47:31.956Z,4.83
2018-01-22T16:50:01.033Z,5.12
2018-01-22T16:52:29.357Z,5.40
2018-01-22T16:54:57.962Z,5.34
2018-01-22T16:57:27.020Z,5.45
2018-01-22T16:59:55.354Z,5.41
2018-01-22T17:02:23.697Z,5.37
2018-01-22T17:04:51.990Z,5.34
2018-01-22T17:07:21.070Z,5.35
2018-01-22T17:09:49.428Z,5.47
2018-01-22T17:12:17.766Z,5.51
2018-01-22T17:14:46.075Z,5.51
2018-01-22T17:17:14.628Z,5.38
2018-01-22T17:19:42.984Z,5.37
2018-01-22T17:22:11.332Z,5.37
2018-01-22T17:24:39.682Z,5.53
2018-01-22T17:27:07.987Z,5.47
2018-01-22T17:29:36.320Z,5.36
2018-01-22T17:32:04.709Z,5.53
2018-01-22T17:34:33.043Z,5.66
2018-01-22T17:37:02.117Z,5.58
2018-01-22T17:39:31.052Z,5.62
2018-01-22T17:41:59.399Z,5.62
2018-01-22T17:44:27.738Z,5.33
2018-01-22T17:46:56.093Z,5.29
2018-01-22T17:49:24.416Z,5.28
2018-01-22T17:51:52.737Z,5.23
2018-01-22T17:54:21.082Z,5.29
2018-01-22T17:56:49.385Z,5.14
2018-01-22T17:59:18.473Z,5.22
2018-01-22T18:01:47.354Z,5.15
2018-01-22T18:04:15.664Z,5.07
2018-01-22T18:06:43.983Z,5.06
2018-01-22T18:09:12.315Z,5.25
2018-01-22T18:11:41.400Z,5.44
2018-01-22T18:14:10.491Z,5.40
2018-01-22T18:16:39.654Z,5.56
2018-01-22T18:19:07.989Z,5.70
2018-01-22T18:21:36.362Z,5.51
2018-01-22T18:24:05.026Z,5.20
2018-01-22T18:26:33.360Z,5.20
2018-01-22T18:29:01.682Z,5.23
2018-01-22T18:31:30.044Z,5.50
2018-01-22T18:33:58.357Z,5.66
2018-01-22T18:36:26.702Z,5.73
2018-01-22T18:38:55.099Z,5.81
2018-01-22T18:41:23.423Z,5.87
2018-01-22T18:43:51.773Z,5.86
2018-01-22T18:46:21.102Z,6.06
2018-01-22T18:48:49.422Z,6.14
2018-01-22T18:51:17.767Z,6.03
2018-01-22T18:53:46.111Z,5.96
2018-01-22T18:56:15.198Z,6.11
2018-01-22T18:58:44.366Z,6.15
2018-01-22T19:01:13.578Z,6.16
2018-01-22T19:03:41.910Z,6.01
2018-01-22T19:06:10.258Z,6.06
2018-01-22T19:08:39.572Z,6.15
2018-01-22T19:11:07.890Z,5.89
2018-01-22T19:13:36.223Z,6.04
2018-01-22T19:16:04.728Z,6.10
2018-01-22T19:18:33.077Z,6.18
2018-01-22T19:21:02.163Z,6.14
2018-01-22T19:23:30.492Z,5.95
2018-01-22T19:25:58.866Z,5.87
2018-01-22T19:28:27.216Z,5.84
2018-01-22T19:30:56.671Z,5.73
2018-01-22T19:33:25.763Z,5.64
2018-01-22T19:35:54.119Z,5.71
2018-01-22T19:38:22.527Z,5.57
2018-01-22T19:40:50.841Z,5.65
2018-01-22T19:43:19.953Z,5.71
2018-01-22T19:45:49.816Z,5.46
2018-01-22T19:48:18.163Z,5.34
2018-01-22T19:50:46.482Z,5.33
2018-01-22T19:53:15.128Z,5.07
2018-01-22T19:55:43.450Z,5.19
2018-01-22T19:58:11.849Z,5.13
2018-01-22T20:00:40.978Z,5.35
2018-01-22T20:03:09.301Z,5.47
2018-01-22T20:05:37.628Z,5.55
2018-01-22T20:08:06.024Z,5.81
2018-01-22T20:10:34.375Z,5.58
2018-01-22T20:13:02.712Z,5.85
2018-01-22T20:15:31.209Z,5.92
2018-01-22T20:17:59.549Z,5.82
2018-01-22T20:20:27.881Z,5.92
2018-01-22T20:22:56.266Z,6.03
2018-01-22T20:25:25.349Z,6.11
2018-01-22T20:27:54.628Z,5.93
2018-01-22T20:30:22.987Z,5.85
2018-01-22T20:32:51.330Z,5.80
2018-01-22T20:35:19.659Z,5.93
2018-01-22T20:37:48.258Z,5.71
2018-01-22T20:40:16.627Z,5.91
2018-01-22T20:42:44.934Z,5.96
2018-01-22T20:45:14.120Z,6.03
2018-01-22T20:47:42.491Z,5.72
2018-01-22T20:50:10.796Z,5.88
2018-01-22T20:52:39.923Z,6.09
2018-01-22T20:55:08.356Z,6.15
2018-01-22T20:57:37.456Z,6.14
2018-01-22T21:00:05.909Z,6.20
2018-01-22T21:02:35.861Z,6.22
2018-01-22T21:05:04.151Z,6.22
2018-01-22T21:07:33.251Z,6.22
2018-01-22T21:10:01.575Z,6.32
2018-01-22T21:12:29.888Z,6.40
2018-01-22T21:14:58.268Z,6.42
2018-01-22T21:17:27.398Z,6.36
2018-01-22T21:19:55.724Z,6.47
2018-01-22T21:22:24.445Z,6.59
2018-01-22T21:24:52.922Z,6.50
2018-01-22T21:27:21.256Z,6.48
2018-01-22T21:29:50.366Z,6.27
2018-01-22T21:32:19.468Z,6.17
2018-01-22T21:34:47.805Z,6.10
2018-01-22T21:37:16.180Z,6.25
2018-01-22T21:39:44.482Z,6.01
2018-01-22T21:42:12.938Z,6.01
2018-01-22T21:44:41.585Z,6.06
2018-01-22T21:47:09.909Z,6.02
2018-01-22T21:49:38.222Z,6.14
2018-01-22T21:52:06.636Z,6.09
2018-01-22T21:54:34.986Z,6.34
2018-01-22T21:57:03.316Z,6.26
2018-01-22T21:59:31.746Z,6.28
2018-01-22T22:02:00.849Z,6.42
2018-01-22T22:04:29.434Z,6.39
2018-01-22T22:06:58.112Z,6.58
2018-01-22T22:09:26.455Z,6.47
2018-01-22T22:11:54.768Z,6.53
2018-01-22T22:14:23.109Z,6.61
2018-01-22T22:16:51.515Z,6.69
2018-01-22T22:19:19.859Z,6.74
2018-01-22T22:21:48.241Z,6.74
2018-01-22T22:24:16.544Z,6.87
2018-01-22T22:26:44.876Z,6.88
2018-01-22T22:29:13.273Z,6.82
2018-01-22T22:31:41.589Z,6.73
2018-01-22T22:34:09.897Z,6.65
2018-01-22T22:36:39.036Z,6.71
2018-01-22T22:39:07.386Z,6.90
2018-01-22T22:41:35.780Z,6.88
2018-01-22T22:44:04.120Z,6.56
2018-01-22T22:46:32.444Z,6.44
2018-01-22T22:49:00.767Z,6.29
2018-01-22T22:51:29.326Z,6.42
2018-01-22T22:53:57.659Z,6.32
2018-01-22T22:56:25.996Z,6.41
2018-01-22T22:58:54.372Z,6.29
2018-01-22T23:01:22.721Z,6.20
2018-01-22T23:03:51.031Z,6.19
2018-01-22T23:06:19.718Z,6.42
2018-01-22T23:08:48.063Z,6.49
2018-01-22T23:11:16.369Z,6.66
2018-01-22T23:13:45.072Z,6.67
2018-01-22T23:16:13.421Z,6.77
2018-01-22T23:18:41.758Z,6.58
2018-01-22T23:21:10.084Z,6.52
2018-01-22T23:23:38.417Z,6.53
2018-01-22T23:26:06.732Z,6.53
2018-01-22T23:28:35.057Z,6.68
2018-01-22T23:31:04.155Z,6.54
2018-01-22T23:33:33.251Z,6.50
2018-01-22T23:36:02.630Z,6.62
2018-01-22T23:38:30.938Z,6.73
2018-01-22T23:40:59.265Z,6.77
2018-01-22T23:43:27.630Z,6.75
2018-01-22T23:45:55.973Z,6.82
2018-01-22T23:48:24.295Z,6.79
2018-01-22T23:50:52.626Z,6.77
2018-01-22T23:53:21.723Z,6.90
2018-01-22T23:55:50.822Z,6.83
2018-01-22T23:58:20.214Z,6.75
